SBVH

Details ICAO SBVH (BVH)
Name VILHENA
Region Brazil
Timezone America/Porto_Velho (UTC-4.0)
Plans Departing 4
Arriving 7
Stats Elevation 2,018 ft / 615 m (AMSL)
Location -12.694373° -60.098270°
Runways 1
Magnetic Variation 15.119° W
Sunrise 2017-12-18 09:32:19 UTC / 2017-12-18 05:32:19 Local
Sunset 2017-12-18 22:24:33 UTC / 2017-12-18 18:24:33 Local
Advertisement - Login to hide

Runways

ID Width Length Bearing (true) Bearing (mag) Surface Threshold Offset Overrun Length
03 98 ft / 30 m 8,583 ft / 2,616 m 14.94° 30.06° Asphalt 0 ft / 0 m 0 ft / 0 m
21 98 ft / 30 m 8,583 ft / 2,616 m 194.94° 210.06° Asphalt 0 ft / 0 m 0 ft / 0 m

Map

Weather


0- 5 10 15 20 25 30 35+ Temperature / ° C

Clouds and Precipitation
Forecast for 2017-12-18 12:00 UTC. Updated 8 minutes ago

Ground ~20,000 ft ~40,000 ft Winds

METAR

Not found

TAF

TAF SBVH 180400Z 1806/1818 33008KT 9999 SCT010 TN18/1811Z TX33/1818Z BECMG 1813/1815 BKN015 BECMG 1815/1817 28005KT SCT020 FEW025TCU RMK PEN

Frequencies

Tower 125.90 MHz RDO
Warning: Do not use this data for real-world aviation or navigation. No guarantee of current accuracy is given.